首页
METAR-TAF:

METAR-TAF

机场 :

Pittsfield Municipal Airport

皮茨菲尔德, 马萨诸塞州, 美国

纬度: 42-25-38N, 经度: 073-17-21W, 海拔: 364米

当前天气观测

该预报发布于15分钟前的10:54 UTC
静风
温度 17°C
湿度 88%
气压 1021 hPa
能見度: 9.7公里
天空无云
轻雾

METAR: KPSF 271054Z AUTO 00000KT 6SM BR CLR 17/15 A3014 RMK AO2 SLP183 T01670150

时间: 07:09 (11:09 UTC)

预报

该预报发布于5小时和36分钟前的05:33 UTC
预报有效从27日的 06点(UTC)到 28日的 06点(UTC)
风速3节,风向多变
能見度: 10公里
少量云层高于8000英尺
短暂存在
从 27日的 06点(UTC)到 27日的 10点(UTC)
能見度: 1.6公里
多云层高于100英尺
轻雾
从 27日的 1400点(UTC)
风速9节,风向西转西北
能見度: 10公里
散云层高于25000英尺
从 28日的 0000点(UTC)
风速2节,风向多变
能見度: 10公里
天空无云

TAF: KPSF 270533Z 2706/2806 VRB03KT P6SM FEW080 TEMPO 2706/2710 1SM BR BKN001 FM271400 29009KT P6SM SCT250 FM280000 VRB02KT P6SM SKC

超过4000个机场的气象观测和天气预报(METAR&TAF报告)。

可查询的气象台以黄色和红色小点在地图上表示。

将鼠标移到小点上方,可查看气象台名称。

然后点击查看天气观测和预报。

如需切换地图:点击带黑十字的绿色按钮放大地图;点击带横线的绿色按钮缩小地图;或者点击绿色箭头查看邻近地区的地图。


METAR-TAF: